sensor_id;sensor_type;location;lat;lon;timestamp;P1;durP1;ratioP1;P2;durP2;ratioP2
18200;SDS011;9226;47.858;9.594;2023-01-29T00:01:24;15.50;;;5.37;;
18200;SDS011;9226;47.858;9.594;2023-01-29T00:03:50;13.70;;;5.20;;
18200;SDS011;9226;47.858;9.594;2023-01-29T00:06:16;15.43;;;5.17;;
18200;SDS011;9226;47.858;9.594;2023-01-29T00:08:42;9.93;;;4.53;;
18200;SDS011;9226;47.858;9.594;2023-01-29T00:11:07;9.47;;;4.83;;
18200;SDS011;9226;47.858;9.594;2023-01-29T00:13:33;13.13;;;4.97;;
18200;SDS011;9226;47.858;9.594;2023-01-29T00:15:59;10.70;;;4.80;;
18200;SDS011;9226;47.858;9.594;2023-01-29T00:18:27;12.50;;;5.17;;
18200;SDS011;9226;47.858;9.594;2023-01-29T00:20:53;12.13;;;4.93;;
18200;SDS011;9226;47.858;9.594;2023-01-29T00:23:18;11.33;;;4.70;;
18200;SDS011;9226;47.858;9.594;2023-01-29T00:25:44;11.97;;;4.50;;
18200;SDS011;9226;47.858;9.594;2023-01-29T00:28:10;11.93;;;5.03;;
18200;SDS011;9226;47.858;9.594;2023-01-29T00:30:37;9.43;;;4.33;;
18200;SDS011;9226;47.858;9.594;2023-01-29T00:33:03;11.07;;;4.77;;
18200;SDS011;9226;47.858;9.594;2023-01-29T00:35:29;9.37;;;3.53;;
18200;SDS011;9226;47.858;9.594;2023-01-29T00:37:55;9.60;;;3.97;;
18200;SDS011;9226;47.858;9.594;2023-01-29T00:40:21;9.57;;;3.90;;
18200;SDS011;9226;47.858;9.594;2023-01-29T00:42:47;9.33;;;3.83;;
18200;SDS011;9226;47.858;9.594;2023-01-29T00:45:32;9.80;;;4.20;;
18200;SDS011;9226;47.858;9.594;2023-01-29T00:47:58;10.23;;;3.73;;
18200;SDS011;9226;47.858;9.594;2023-01-29T00:50:24;11.17;;;4.70;;
18200;SDS011;9226;47.858;9.594;2023-01-29T00:52:49;12.60;;;4.87;;
18200;SDS011;9226;47.858;9.594;2023-01-29T00:55:17;11.17;;;4.07;;
18200;SDS011;9226;47.858;9.594;2023-01-29T00:57:42;9.33;;;4.27;;
18200;SDS011;9226;47.858;9.594;2023-01-29T01:00:09;8.10;;;3.83;;
18200;SDS011;9226;47.858;9.594;2023-01-29T01:02:37;9.77;;;4.37;;
18200;SDS011;9226;47.858;9.594;2023-01-29T01:05:21;10.07;;;4.27;;
18200;SDS011;9226;47.858;9.594;2023-01-29T01:07:47;13.93;;;5.37;;
18200;SDS011;9226;47.858;9.594;2023-01-29T01:10:15;13.13;;;5.37;;
18200;SDS011;9226;47.858;9.594;2023-01-29T01:15:35;10.33;;;4.33;;
18200;SDS011;9226;47.858;9.594;2023-01-29T01:18:02;12.47;;;4.37;;
18200;SDS011;9226;47.858;9.594;2023-01-29T01:20:29;13.53;;;4.70;;
18200;SDS011;9226;47.858;9.594;2023-01-29T01:22:56;13.40;;;5.07;;
18200;SDS011;9226;47.858;9.594;2023-01-29T01:25:22;10.10;;;4.60;;
18200;SDS011;9226;47.858;9.594;2023-01-29T01:27:55;11.67;;;5.23;;
18200;SDS011;9226;47.858;9.594;2023-01-29T01:30:22;14.43;;;5.77;;
18200;SDS011;9226;47.858;9.594;2023-01-29T01:32:48;15.17;;;5.97;;
18200;SDS011;9226;47.858;9.594;2023-01-29T01:35:14;13.40;;;5.47;;
18200;SDS011;9226;47.858;9.594;2023-01-29T01:37:40;16.17;;;6.17;;
18200;SDS011;9226;47.858;9.594;2023-01-29T01:40:07;17.23;;;6.47;;
18200;SDS011;9226;47.858;9.594;2023-01-29T01:42:41;14.27;;;5.40;;
18200;SDS011;9226;47.858;9.594;2023-01-29T01:45:25;16.57;;;6.63;;
18200;SDS011;9226;47.858;9.594;2023-01-29T01:48:26;14.63;;;5.47;;
18200;SDS011;9226;47.858;9.594;2023-01-29T01:50:57;17.03;;;6.20;;
18200;SDS011;9226;47.858;9.594;2023-01-29T01:53:28;14.33;;;5.63;;
18200;SDS011;9226;47.858;9.594;2023-01-29T01:55:56;19.90;;;6.90;;
18200;SDS011;9226;47.858;9.594;2023-01-29T01:58:27;15.83;;;6.17;;
18200;SDS011;9226;47.858;9.594;2023-01-29T02:00:57;19.10;;;6.70;;
18200;SDS011;9226;47.858;9.594;2023-01-29T02:03:23;15.77;;;5.60;;
18200;SDS011;9226;47.858;9.594;2023-01-29T02:06:09;18.63;;;6.57;;
18200;SDS011;9226;47.858;9.594;2023-01-29T02:08:57;17.63;;;6.77;;
18200;SDS011;9226;47.858;9.594;2023-01-29T02:11:43;18.87;;;7.27;;
18200;SDS011;9226;47.858;9.594;2023-01-29T02:14:09;19.63;;;7.07;;
18200;SDS011;9226;47.858;9.594;2023-01-29T02:16:35;21.63;;;7.33;;
18200;SDS011;9226;47.858;9.594;2023-01-29T02:19:01;19.40;;;7.13;;
18200;SDS011;9226;47.858;9.594;2023-01-29T02:21:45;19.10;;;6.73;;
18200;SDS011;9226;47.858;9.594;2023-01-29T02:27:14;18.03;;;6.53;;
18200;SDS011;9226;47.858;9.594;2023-01-29T02:30:21;20.10;;;6.80;;
18200;SDS011;9226;47.858;9.594;2023-01-29T02:35:45;21.00;;;6.93;;
18200;SDS011;9226;47.858;9.594;2023-01-29T02:41:03;18.20;;;6.93;;
18200;SDS011;9226;47.858;9.594;2023-01-29T02:46:20;19.90;;;7.20;;
18200;SDS011;9226;47.858;9.594;2023-01-29T02:49:07;23.60;;;8.73;;
18200;SDS011;9226;47.858;9.594;2023-01-29T02:51:38;19.90;;;7.37;;
18200;SDS011;9226;47.858;9.594;2023-01-29T02:54:17;21.63;;;7.90;;
18200;SDS011;9226;47.858;9.594;2023-01-29T02:56:54;21.37;;;8.10;;
18200;SDS011;9226;47.858;9.594;2023-01-29T02:59:43;19.20;;;8.13;;
18200;SDS011;9226;47.858;9.594;2023-01-29T03:02:14;19.37;;;7.40;;
18200;SDS011;9226;47.858;9.594;2023-01-29T03:04:47;20.07;;;7.93;;
18200;SDS011;9226;47.858;9.594;2023-01-29T03:07:21;16.43;;;7.27;;
18200;SDS011;9226;47.858;9.594;2023-01-29T03:10:11;17.97;;;7.57;;
18200;SDS011;9226;47.858;9.594;2023-01-29T03:12:41;20.50;;;7.50;;
18200;SDS011;9226;47.858;9.594;2023-01-29T03:15:12;19.47;;;8.20;;
18200;SDS011;9226;47.858;9.594;2023-01-29T03:17:56;20.40;;;7.23;;
18200;SDS011;9226;47.858;9.594;2023-01-29T03:20:28;18.43;;;7.80;;
18200;SDS011;9226;47.858;9.594;2023-01-29T03:23:09;19.97;;;7.53;;
18200;SDS011;9226;47.858;9.594;2023-01-29T03:25:39;20.90;;;7.40;;
18200;SDS011;9226;47.858;9.594;2023-01-29T03:28:25;21.73;;;7.77;;
18200;SDS011;9226;47.858;9.594;2023-01-29T03:31:12;19.00;;;7.80;;
18200;SDS011;9226;47.858;9.594;2023-01-29T03:36:45;18.23;;;6.33;;
18200;SDS011;9226;47.858;9.594;2023-01-29T03:39:13;13.03;;;5.23;;
18200;SDS011;9226;47.858;9.594;2023-01-29T03:41:54;9.23;;;4.83;;
18200;SDS011;9226;47.858;9.594;2023-01-29T03:47:10;7.67;;;3.57;;
18200;SDS011;9226;47.858;9.594;2023-01-29T03:52:58;9.93;;;4.53;;
18200;SDS011;9226;47.858;9.594;2023-01-29T04:00:55;13.03;;;5.53;;
18200;SDS011;9226;47.858;9.594;2023-01-29T04:03:28;11.37;;;5.47;;
18200;SDS011;9226;47.858;9.594;2023-01-29T04:06:10;8.93;;;3.93;;
18200;SDS011;9226;47.858;9.594;2023-01-29T04:08:47;7.83;;;3.73;;
18200;SDS011;9226;47.858;9.594;2023-01-29T04:11:21;11.10;;;4.03;;
18200;SDS011;9226;47.858;9.594;2023-01-29T04:13:49;7.50;;;3.50;;
18200;SDS011;9226;47.858;9.594;2023-01-29T04:16:30;10.07;;;4.00;;
18200;SDS011;9226;47.858;9.594;2023-01-29T04:19:00;9.43;;;4.13;;
18200;SDS011;9226;47.858;9.594;2023-01-29T04:21:26;8.50;;;3.73;;
18200;SDS011;9226;47.858;9.594;2023-01-29T04:23:52;7.93;;;3.57;;
18200;SDS011;9226;47.858;9.594;2023-01-29T04:29:30;9.27;;;3.97;;
18200;SDS011;9226;47.858;9.594;2023-01-29T04:37:15;14.57;;;5.60;;
18200;SDS011;9226;47.858;9.594;2023-01-29T04:42:48;11.43;;;4.33;;
18200;SDS011;9226;47.858;9.594;2023-01-29T04:45:26;9.07;;;3.63;;
18200;SDS011;9226;47.858;9.594;2023-01-29T04:59:13;8.47;;;3.97;;
18200;SDS011;9226;47.858;9.594;2023-01-29T05:01:44;9.37;;;4.10;;
18200;SDS011;9226;47.858;9.594;2023-01-29T05:04:12;10.87;;;4.20;;
18200;SDS011;9226;47.858;9.594;2023-01-29T05:06:40;8.10;;;3.93;;
18200;SDS011;9226;47.858;9.594;2023-01-29T05:09:07;8.03;;;4.00;;
18200;SDS011;9226;47.858;9.594;2023-01-29T05:11:35;8.67;;;4.00;;
18200;SDS011;9226;47.858;9.594;2023-01-29T05:14:02;8.10;;;4.07;;
18200;SDS011;9226;47.858;9.594;2023-01-29T05:16:30;10.00;;;4.07;;
18200;SDS011;9226;47.858;9.594;2023-01-29T05:19:06;8.50;;;3.50;;
18200;SDS011;9226;47.858;9.594;2023-01-29T05:21:33;9.97;;;4.20;;
18200;SDS011;9226;47.858;9.594;2023-01-29T05:24:05;8.10;;;3.67;;
18200;SDS011;9226;47.858;9.594;2023-01-29T05:26:35;9.07;;;4.13;;
18200;SDS011;9226;47.858;9.594;2023-01-29T05:29:20;11.80;;;4.83;;
18200;SDS011;9226;47.858;9.594;2023-01-29T05:31:45;11.33;;;4.13;;
18200;SDS011;9226;47.858;9.594;2023-01-29T05:34:11;8.80;;;4.07;;
18200;SDS011;9226;47.858;9.594;2023-01-29T05:36:36;9.93;;;4.10;;
18200;SDS011;9226;47.858;9.594;2023-01-29T05:39:02;11.70;;;4.50;;
18200;SDS011;9226;47.858;9.594;2023-01-29T05:41:27;10.57;;;4.60;;
18200;SDS011;9226;47.858;9.594;2023-01-29T05:43:53;11.60;;;5.03;;
18200;SDS011;9226;47.858;9.594;2023-01-29T05:46:18;11.53;;;4.83;;
18200;SDS011;9226;47.858;9.594;2023-01-29T05:48:43;11.60;;;4.93;;
18200;SDS011;9226;47.858;9.594;2023-01-29T05:51:09;9.70;;;4.43;;
18200;SDS011;9226;47.858;9.594;2023-01-29T05:53:34;11.47;;;4.67;;
18200;SDS011;9226;47.858;9.594;2023-01-29T05:56:00;13.03;;;4.80;;
18200;SDS011;9226;47.858;9.594;2023-01-29T05:58:26;9.53;;;4.60;;
18200;SDS011;9226;47.858;9.594;2023-01-29T06:00:51;8.57;;;4.47;;
18200;SDS011;9226;47.858;9.594;2023-01-29T06:03:17;13.47;;;5.00;;
18200;SDS011;9226;47.858;9.594;2023-01-29T06:05:42;11.93;;;4.60;;
18200;SDS011;9226;47.858;9.594;2023-01-29T06:08:08;10.43;;;4.60;;
18200;SDS011;9226;47.858;9.594;2023-01-29T06:10:33;12.97;;;5.20;;
18200;SDS011;9226;47.858;9.594;2023-01-29T06:12:59;12.50;;;5.20;;
18200;SDS011;9226;47.858;9.594;2023-01-29T06:15:24;13.90;;;5.43;;
18200;SDS011;9226;47.858;9.594;2023-01-29T06:17:52;16.00;;;5.80;;
18200;SDS011;9226;47.858;9.594;2023-01-29T06:20:18;12.67;;;5.13;;
18200;SDS011;9226;47.858;9.594;2023-01-29T06:22:44;11.97;;;4.97;;
18200;SDS011;9226;47.858;9.594;2023-01-29T06:25:10;13.20;;;5.10;;
18200;SDS011;9226;47.858;9.594;2023-01-29T06:27:35;12.47;;;5.13;;
18200;SDS011;9226;47.858;9.594;2023-01-29T06:30:01;12.97;;;4.70;;
18200;SDS011;9226;47.858;9.594;2023-01-29T06:32:28;11.50;;;5.00;;
18200;SDS011;9226;47.858;9.594;2023-01-29T06:34:53;14.07;;;5.20;;
18200;SDS011;9226;47.858;9.594;2023-01-29T06:37:18;10.63;;;5.30;;
18200;SDS011;9226;47.858;9.594;2023-01-29T06:39:44;12.63;;;5.40;;
18200;SDS011;9226;47.858;9.594;2023-01-29T06:42:09;13.43;;;5.87;;
18200;SDS011;9226;47.858;9.594;2023-01-29T06:44:35;10.63;;;4.63;;
18200;SDS011;9226;47.858;9.594;2023-01-29T06:47:00;11.77;;;5.07;;
18200;SDS011;9226;47.858;9.594;2023-01-29T06:49:26;14.10;;;5.80;;
18200;SDS011;9226;47.858;9.594;2023-01-29T06:51:51;12.60;;;5.47;;
18200;SDS011;9226;47.858;9.594;2023-01-29T06:54:17;13.93;;;5.83;;
18200;SDS011;9226;47.858;9.594;2023-01-29T06:56:42;11.67;;;5.60;;
18200;SDS011;9226;47.858;9.594;2023-01-29T06:59:07;14.20;;;6.00;;
18200;SDS011;9226;47.858;9.594;2023-01-29T07:01:33;12.50;;;5.70;;
18200;SDS011;9226;47.858;9.594;2023-01-29T07:03:58;15.73;;;6.67;;
18200;SDS011;9226;47.858;9.594;2023-01-29T07:06:27;16.27;;;7.63;;
18200;SDS011;9226;47.858;9.594;2023-01-29T07:08:53;19.67;;;7.23;;
18200;SDS011;9226;47.858;9.594;2023-01-29T07:11:18;19.97;;;6.97;;
18200;SDS011;9226;47.858;9.594;2023-01-29T07:13:44;17.30;;;6.40;;
18200;SDS011;9226;47.858;9.594;2023-01-29T07:16:09;17.23;;;6.57;;
18200;SDS011;9226;47.858;9.594;2023-01-29T07:18:35;16.20;;;6.77;;
18200;SDS011;9226;47.858;9.594;2023-01-29T07:21:04;16.17;;;7.17;;
18200;SDS011;9226;47.858;9.594;2023-01-29T07:23:31;18.90;;;7.27;;
18200;SDS011;9226;47.858;9.594;2023-01-29T07:26:01;19.97;;;7.23;;
18200;SDS011;9226;47.858;9.594;2023-01-29T07:28:28;15.10;;;6.50;;
18200;SDS011;9226;47.858;9.594;2023-01-29T07:30:55;16.10;;;6.50;;
18200;SDS011;9226;47.858;9.594;2023-01-29T07:33:23;20.23;;;7.27;;
18200;SDS011;9226;47.858;9.594;2023-01-29T07:35:49;18.97;;;7.20;;
18200;SDS011;9226;47.858;9.594;2023-01-29T07:38:14;15.87;;;6.07;;
18200;SDS011;9226;47.858;9.594;2023-01-29T07:40:40;14.87;;;6.30;;
18200;SDS011;9226;47.858;9.594;2023-01-29T07:43:05;16.70;;;6.03;;
18200;SDS011;9226;47.858;9.594;2023-01-29T07:45:35;13.50;;;5.73;;
18200;SDS011;9226;47.858;9.594;2023-01-29T07:48:02;14.80;;;6.33;;
18200;SDS011;9226;47.858;9.594;2023-01-29T07:50:31;13.67;;;5.73;;
18200;SDS011;9226;47.858;9.594;2023-01-29T07:52:58;12.60;;;5.57;;
18200;SDS011;9226;47.858;9.594;2023-01-29T07:55:24;15.97;;;7.33;;
18200;SDS011;9226;47.858;9.594;2023-01-29T07:57:59;19.60;;;7.73;;
18200;SDS011;9226;47.858;9.594;2023-01-29T08:00:26;21.43;;;9.00;;
18200;SDS011;9226;47.858;9.594;2023-01-29T08:02:53;16.17;;;6.33;;
18200;SDS011;9226;47.858;9.594;2023-01-29T08:05:18;16.53;;;6.53;;
18200;SDS011;9226;47.858;9.594;2023-01-29T08:07:44;15.77;;;6.40;;
18200;SDS011;9226;47.858;9.594;2023-01-29T08:10:09;18.10;;;6.47;;
18200;SDS011;9226;47.858;9.594;2023-01-29T08:12:36;16.10;;;6.53;;
18200;SDS011;9226;47.858;9.594;2023-01-29T08:15:01;16.97;;;6.20;;
18200;SDS011;9226;47.858;9.594;2023-01-29T08:17:27;15.63;;;6.50;;
18200;SDS011;9226;47.858;9.594;2023-01-29T08:19:53;20.03;;;7.07;;
18200;SDS011;9226;47.858;9.594;2023-01-29T08:22:18;18.90;;;6.50;;
18200;SDS011;9226;47.858;9.594;2023-01-29T08:24:43;17.43;;;6.87;;
18200;SDS011;9226;47.858;9.594;2023-01-29T08:27:09;16.90;;;6.47;;
18200;SDS011;9226;47.858;9.594;2023-01-29T08:29:34;15.60;;;6.40;;
18200;SDS011;9226;47.858;9.594;2023-01-29T08:32:00;18.37;;;7.57;;
18200;SDS011;9226;47.858;9.594;2023-01-29T08:34:25;15.20;;;6.43;;
18200;SDS011;9226;47.858;9.594;2023-01-29T08:36:51;15.93;;;6.90;;
18200;SDS011;9226;47.858;9.594;2023-01-29T08:39:17;18.97;;;7.83;;
18200;SDS011;9226;47.858;9.594;2023-01-29T08:41:43;16.27;;;6.60;;
18200;SDS011;9226;47.858;9.594;2023-01-29T08:44:08;20.07;;;7.90;;
18200;SDS011;9226;47.858;9.594;2023-01-29T08:46:34;17.30;;;6.87;;
18200;SDS011;9226;47.858;9.594;2023-01-29T08:48:59;17.53;;;7.13;;
18200;SDS011;9226;47.858;9.594;2023-01-29T08:51:25;17.97;;;6.90;;
18200;SDS011;9226;47.858;9.594;2023-01-29T08:53:50;18.77;;;7.33;;
18200;SDS011;9226;47.858;9.594;2023-01-29T08:56:16;20.17;;;7.50;;
18200;SDS011;9226;47.858;9.594;2023-01-29T08:58:42;19.10;;;8.03;;
18200;SDS011;9226;47.858;9.594;2023-01-29T09:01:09;17.13;;;7.93;;
18200;SDS011;9226;47.858;9.594;2023-01-29T09:03:36;19.03;;;7.67;;
18200;SDS011;9226;47.858;9.594;2023-01-29T09:06:02;16.60;;;6.70;;
18200;SDS011;9226;47.858;9.594;2023-01-29T09:08:28;16.90;;;7.20;;
18200;SDS011;9226;47.858;9.594;2023-01-29T09:10:53;17.97;;;6.80;;
18200;SDS011;9226;47.858;9.594;2023-01-29T09:13:19;14.13;;;6.57;;
18200;SDS011;9226;47.858;9.594;2023-01-29T09:15:44;18.43;;;7.67;;
18200;SDS011;9226;47.858;9.594;2023-01-29T09:18:10;16.83;;;6.43;;
18200;SDS011;9226;47.858;9.594;2023-01-29T09:20:35;15.43;;;6.60;;
18200;SDS011;9226;47.858;9.594;2023-01-29T09:23:05;13.93;;;6.57;;
18200;SDS011;9226;47.858;9.594;2023-01-29T09:25:32;19.20;;;6.67;;
18200;SDS011;9226;47.858;9.594;2023-01-29T09:27:58;17.03;;;6.30;;
18200;SDS011;9226;47.858;9.594;2023-01-29T09:30:23;15.87;;;6.30;;
18200;SDS011;9226;47.858;9.594;2023-01-29T09:32:49;14.87;;;6.50;;
18200;SDS011;9226;47.858;9.594;2023-01-29T09:35:14;18.10;;;8.03;;
18200;SDS011;9226;47.858;9.594;2023-01-29T09:37:40;17.97;;;7.93;;
18200;SDS011;9226;47.858;9.594;2023-01-29T09:40:05;20.47;;;8.43;;
18200;SDS011;9226;47.858;9.594;2023-01-29T09:42:36;17.27;;;7.27;;
18200;SDS011;9226;47.858;9.594;2023-01-29T09:45:11;16.27;;;6.60;;
18200;SDS011;9226;47.858;9.594;2023-01-29T09:47:40;16.97;;;7.33;;
18200;SDS011;9226;47.858;9.594;2023-01-29T09:58:44;18.67;;;7.63;;
18200;SDS011;9226;47.858;9.594;2023-01-29T10:15:05;20.00;;;9.40;;
18200;SDS011;9226;47.858;9.594;2023-01-29T10:17:55;20.07;;;7.80;;
18200;SDS011;9226;47.858;9.594;2023-01-29T10:20:33;17.10;;;7.10;;
18200;SDS011;9226;47.858;9.594;2023-01-29T10:23:06;18.13;;;7.73;;
18200;SDS011;9226;47.858;9.594;2023-01-29T10:25:47;18.00;;;7.73;;
18200;SDS011;9226;47.858;9.594;2023-01-29T10:28:37;21.27;;;8.80;;
18200;SDS011;9226;47.858;9.594;2023-01-29T10:31:09;17.07;;;7.23;;
18200;SDS011;9226;47.858;9.594;2023-01-29T10:33:40;19.30;;;9.30;;
18200;SDS011;9226;47.858;9.594;2023-01-29T10:36:18;21.40;;;9.47;;
18200;SDS011;9226;47.858;9.594;2023-01-29T10:38:48;19.17;;;8.43;;
18200;SDS011;9226;47.858;9.594;2023-01-29T10:46:35;20.67;;;8.07;;
18200;SDS011;9226;47.858;9.594;2023-01-29T11:00:32;18.53;;;7.90;;
18200;SDS011;9226;47.858;9.594;2023-01-29T11:03:35;17.43;;;7.57;;
18200;SDS011;9226;47.858;9.594;2023-01-29T11:06:10;19.03;;;7.77;;
18200;SDS011;9226;47.858;9.594;2023-01-29T11:11:21;15.93;;;6.93;;
18200;SDS011;9226;47.858;9.594;2023-01-29T11:14:02;17.80;;;7.93;;
18200;SDS011;9226;47.858;9.594;2023-01-29T11:16:31;16.00;;;7.27;;
18200;SDS011;9226;47.858;9.594;2023-01-29T11:19:05;17.83;;;7.10;;
18200;SDS011;9226;47.858;9.594;2023-01-29T11:21:30;18.73;;;8.50;;
18200;SDS011;9226;47.858;9.594;2023-01-29T11:24:06;18.70;;;8.03;;
18200;SDS011;9226;47.858;9.594;2023-01-29T11:26:37;19.43;;;7.70;;
18200;SDS011;9226;47.858;9.594;2023-01-29T11:29:04;21.47;;;7.77;;
18200;SDS011;9226;47.858;9.594;2023-01-29T11:31:52;17.57;;;7.80;;
18200;SDS011;9226;47.858;9.594;2023-01-29T11:34:19;17.93;;;7.73;;
18200;SDS011;9226;47.858;9.594;2023-01-29T11:36:55;18.73;;;8.20;;
18200;SDS011;9226;47.858;9.594;2023-01-29T11:39:22;17.17;;;8.27;;
18200;SDS011;9226;47.858;9.594;2023-01-29T11:49:54;20.63;;;8.77;;
18200;SDS011;9226;47.858;9.594;2023-01-29T11:52:22;19.77;;;8.93;;
18200;SDS011;9226;47.858;9.594;2023-01-29T11:54:57;18.60;;;8.43;;
18200;SDS011;9226;47.858;9.594;2023-01-29T11:57:30;19.00;;;7.63;;
18200;SDS011;9226;47.858;9.594;2023-01-29T12:00:06;20.87;;;8.70;;
18200;SDS011;9226;47.858;9.594;2023-01-29T12:02:41;22.33;;;8.80;;
18200;SDS011;9226;47.858;9.594;2023-01-29T12:05:13;19.77;;;7.67;;
18200;SDS011;9226;47.858;9.594;2023-01-29T12:07:43;23.10;;;9.10;;
18200;SDS011;9226;47.858;9.594;2023-01-29T12:15:34;23.77;;;8.93;;
18200;SDS011;9226;47.858;9.594;2023-01-29T12:20:32;23.63;;;9.83;;
18200;SDS011;9226;47.858;9.594;2023-01-29T12:23:10;22.20;;;9.03;;
18200;SDS011;9226;47.858;9.594;2023-01-29T12:25:49;20.73;;;9.23;;
18200;SDS011;9226;47.858;9.594;2023-01-29T12:31:06;20.90;;;8.57;;
18200;SDS011;9226;47.858;9.594;2023-01-29T12:36:55;20.77;;;8.87;;
18200;SDS011;9226;47.858;9.594;2023-01-29T12:39:28;23.83;;;8.53;;
18200;SDS011;9226;47.858;9.594;2023-01-29T12:41:58;19.30;;;8.43;;
18200;SDS011;9226;47.858;9.594;2023-01-29T12:44:34;22.60;;;8.53;;
18200;SDS011;9226;47.858;9.594;2023-01-29T12:47:06;21.80;;;9.23;;
18200;SDS011;9226;47.858;9.594;2023-01-29T12:49:57;18.37;;;8.43;;
18200;SDS011;9226;47.858;9.594;2023-01-29T12:52:37;17.03;;;8.73;;
18200;SDS011;9226;47.858;9.594;2023-01-29T12:55:10;21.37;;;9.07;;
18200;SDS011;9226;47.858;9.594;2023-01-29T12:58:00;20.40;;;8.27;;
18200;SDS011;9226;47.858;9.594;2023-01-29T13:00:31;25.47;;;9.17;;
18200;SDS011;9226;47.858;9.594;2023-01-29T13:05:51;47.27;;;14.90;;
18200;SDS011;9226;47.858;9.594;2023-01-29T13:08:25;23.67;;;10.40;;
18200;SDS011;9226;47.858;9.594;2023-01-29T13:10:54;18.20;;;8.73;;
18200;SDS011;9226;47.858;9.594;2023-01-29T13:14:28;21.47;;;8.43;;
18200;SDS011;9226;47.858;9.594;2023-01-29T13:16:47;22.03;;;8.87;;
18200;SDS011;9226;47.858;9.594;2023-01-29T13:19:28;27.83;;;9.73;;
18200;SDS011;9226;47.858;9.594;2023-01-29T13:21:59;21.77;;;9.03;;
18200;SDS011;9226;47.858;9.594;2023-01-29T13:24:38;29.03;;;8.87;;
18200;SDS011;9226;47.858;9.594;2023-01-29T13:27:05;21.93;;;8.87;;
18200;SDS011;9226;47.858;9.594;2023-01-29T13:29:31;20.47;;;8.50;;
18200;SDS011;9226;47.858;9.594;2023-01-29T13:32:02;17.70;;;7.70;;
18200;SDS011;9226;47.858;9.594;2023-01-29T13:39:48;20.17;;;7.83;;
18200;SDS011;9226;47.858;9.594;2023-01-29T13:42:20;21.07;;;8.83;;
18200;SDS011;9226;47.858;9.594;2023-01-29T13:44:48;25.70;;;8.90;;
18200;SDS011;9226;47.858;9.594;2023-01-29T13:47:25;22.33;;;9.03;;
18200;SDS011;9226;47.858;9.594;2023-01-29T13:49:54;31.33;;;12.00;;
18200;SDS011;9226;47.858;9.594;2023-01-29T13:55:05;19.57;;;8.97;;
18200;SDS011;9226;47.858;9.594;2023-01-29T14:00:01;33.67;;;9.37;;
18200;SDS011;9226;47.858;9.594;2023-01-29T14:02:28;28.60;;;9.10;;
18200;SDS011;9226;47.858;9.594;2023-01-29T14:07:53;22.90;;;9.13;;
18200;SDS011;9226;47.858;9.594;2023-01-29T14:10:19;20.57;;;9.00;;
18200;SDS011;9226;47.858;9.594;2023-01-29T14:12:50;20.43;;;8.87;;
18200;SDS011;9226;47.858;9.594;2023-01-29T14:15:23;20.30;;;8.67;;
18200;SDS011;9226;47.858;9.594;2023-01-29T14:18:01;25.37;;;8.80;;
18200;SDS011;9226;47.858;9.594;2023-01-29T14:23:15;22.77;;;9.13;;
18200;SDS011;9226;47.858;9.594;2023-01-29T14:26:17;21.00;;;9.47;;
18200;SDS011;9226;47.858;9.594;2023-01-29T14:31:46;21.13;;;9.07;;
18200;SDS011;9226;47.858;9.594;2023-01-29T14:45:26;21.30;;;8.47;;
18200;SDS011;9226;47.858;9.594;2023-01-29T14:47:59;20.20;;;8.13;;
18200;SDS011;9226;47.858;9.594;2023-01-29T14:55:56;22.03;;;8.33;;
18200;SDS011;9226;47.858;9.594;2023-01-29T14:58:32;17.43;;;7.33;;
18200;SDS011;9226;47.858;9.594;2023-01-29T15:00:59;17.40;;;8.00;;
18200;SDS011;9226;47.858;9.594;2023-01-29T15:05:57;18.37;;;8.00;;
18200;SDS011;9226;47.858;9.594;2023-01-29T15:08:28;21.40;;;8.63;;
18200;SDS011;9226;47.858;9.594;2023-01-29T15:11:02;21.33;;;8.80;;
18200;SDS011;9226;47.858;9.594;2023-01-29T15:13:54;26.13;;;9.60;;
18200;SDS011;9226;47.858;9.594;2023-01-29T15:16:34;20.73;;;8.90;;
18200;SDS011;9226;47.858;9.594;2023-01-29T15:19:28;19.23;;;8.53;;
18200;SDS011;9226;47.858;9.594;2023-01-29T15:22:06;20.83;;;8.77;;
18200;SDS011;9226;47.858;9.594;2023-01-29T15:24:37;27.10;;;9.30;;
18200;SDS011;9226;47.858;9.594;2023-01-29T15:27:17;22.90;;;8.47;;
18200;SDS011;9226;47.858;9.594;2023-01-29T15:29:52;28.37;;;8.87;;
18200;SDS011;9226;47.858;9.594;2023-01-29T15:34:55;22.73;;;7.67;;
18200;SDS011;9226;47.858;9.594;2023-01-29T15:37:30;18.60;;;8.37;;
18200;SDS011;9226;47.858;9.594;2023-01-29T15:39:57;19.87;;;8.43;;
18200;SDS011;9226;47.858;9.594;2023-01-29T15:42:24;19.03;;;7.60;;
18200;SDS011;9226;47.858;9.594;2023-01-29T15:44:51;18.33;;;7.87;;
18200;SDS011;9226;47.858;9.594;2023-01-29T15:47:19;21.07;;;7.87;;
18200;SDS011;9226;47.858;9.594;2023-01-29T15:49:55;21.03;;;7.53;;
18200;SDS011;9226;47.858;9.594;2023-01-29T15:52:39;20.33;;;8.03;;
18200;SDS011;9226;47.858;9.594;2023-01-29T15:55:05;19.77;;;8.23;;
18200;SDS011;9226;47.858;9.594;2023-01-29T15:57:33;22.40;;;8.53;;
18200;SDS011;9226;47.858;9.594;2023-01-29T16:00:05;19.47;;;7.57;;
18200;SDS011;9226;47.858;9.594;2023-01-29T16:04:58;21.43;;;9.13;;
18200;SDS011;9226;47.858;9.594;2023-01-29T16:07:24;21.83;;;7.77;;
18200;SDS011;9226;47.858;9.594;2023-01-29T16:09:49;20.60;;;7.80;;
18200;SDS011;9226;47.858;9.594;2023-01-29T16:12:16;22.97;;;8.17;;
18200;SDS011;9226;47.858;9.594;2023-01-29T16:14:42;30.27;;;9.53;;
18200;SDS011;9226;47.858;9.594;2023-01-29T16:17:09;25.23;;;9.90;;
18200;SDS011;9226;47.858;9.594;2023-01-29T16:19:53;23.43;;;9.57;;
18200;SDS011;9226;47.858;9.594;2023-01-29T16:22:20;21.77;;;8.03;;
18200;SDS011;9226;47.858;9.594;2023-01-29T16:24:45;22.00;;;8.60;;
18200;SDS011;9226;47.858;9.594;2023-01-29T16:27:13;16.90;;;8.40;;
18200;SDS011;9226;47.858;9.594;2023-01-29T16:29:39;26.03;;;9.20;;
18200;SDS011;9226;47.858;9.594;2023-01-29T16:32:05;20.37;;;8.50;;
18200;SDS011;9226;47.858;9.594;2023-01-29T16:34:39;21.97;;;8.93;;
18200;SDS011;9226;47.858;9.594;2023-01-29T16:37:15;23.70;;;9.13;;
18200;SDS011;9226;47.858;9.594;2023-01-29T16:39:54;20.77;;;8.73;;
18200;SDS011;9226;47.858;9.594;2023-01-29T16:42:24;19.30;;;8.90;;
18200;SDS011;9226;47.858;9.594;2023-01-29T16:47:30;32.30;;;13.30;;
18200;SDS011;9226;47.858;9.594;2023-01-29T16:52:35;30.10;;;12.50;;
18200;SDS011;9226;47.858;9.594;2023-01-29T16:57:35;19.63;;;8.73;;
18200;SDS011;9226;47.858;9.594;2023-01-29T17:00:04;23.27;;;10.23;;
18200;SDS011;9226;47.858;9.594;2023-01-29T17:02:37;19.57;;;8.50;;
18200;SDS011;9226;47.858;9.594;2023-01-29T17:05:07;22.07;;;7.90;;
18200;SDS011;9226;47.858;9.594;2023-01-29T17:07:41;18.90;;;7.93;;
18200;SDS011;9226;47.858;9.594;2023-01-29T17:10:14;17.97;;;7.50;;
18200;SDS011;9226;47.858;9.594;2023-01-29T17:12:41;22.37;;;8.47;;
18200;SDS011;9226;47.858;9.594;2023-01-29T17:15:38;21.53;;;8.27;;
18200;SDS011;9226;47.858;9.594;2023-01-29T17:18:10;24.80;;;8.43;;
18200;SDS011;9226;47.858;9.594;2023-01-29T17:20:41;19.47;;;9.47;;
18200;SDS011;9226;47.858;9.594;2023-01-29T17:23:07;20.67;;;8.77;;
18200;SDS011;9226;47.858;9.594;2023-01-29T17:25:32;18.83;;;8.00;;
18200;SDS011;9226;47.858;9.594;2023-01-29T17:27:59;20.27;;;7.63;;
18200;SDS011;9226;47.858;9.594;2023-01-29T17:30:25;21.33;;;8.33;;
18200;SDS011;9226;47.858;9.594;2023-01-29T17:32:54;22.33;;;9.13;;
18200;SDS011;9226;47.858;9.594;2023-01-29T17:35:20;23.60;;;9.40;;
18200;SDS011;9226;47.858;9.594;2023-01-29T17:37:45;20.17;;;7.97;;
18200;SDS011;9226;47.858;9.594;2023-01-29T17:40:23;20.50;;;8.47;;
18200;SDS011;9226;47.858;9.594;2023-01-29T17:42:55;19.87;;;8.10;;
18200;SDS011;9226;47.858;9.594;2023-01-29T17:45:21;19.43;;;7.77;;
18200;SDS011;9226;47.858;9.594;2023-01-29T17:47:46;23.20;;;8.10;;
18200;SDS011;9226;47.858;9.594;2023-01-29T17:50:22;24.47;;;9.00;;
18200;SDS011;9226;47.858;9.594;2023-01-29T17:52:52;21.23;;;8.67;;
18200;SDS011;9226;47.858;9.594;2023-01-29T17:55:18;22.03;;;8.27;;
18200;SDS011;9226;47.858;9.594;2023-01-29T17:57:44;20.67;;;8.03;;